sensor_id;sensor_type;location;lat;lon;timestamp;P1;durP1;ratioP1;P2;durP2;ratioP2
62673;SDS011;62269;47.594;17.638;2023-09-19T00:00:23;14.55;;;10.18;;
62673;SDS011;62269;47.594;17.638;2023-09-19T00:01:22;15.95;;;11.12;;
62673;SDS011;62269;47.594;17.638;2023-09-19T00:02:19;14.82;;;10.05;;
62673;SDS011;62269;47.594;17.638;2023-09-19T00:03:16;14.38;;;9.80;;
62673;SDS011;62269;47.594;17.638;2023-09-19T00:04:13;16.90;;;10.75;;
62673;SDS011;62269;47.594;17.638;2023-09-19T00:05:11;14.27;;;10.18;;
62673;SDS011;62269;47.594;17.638;2023-09-19T00:06:08;15.00;;;10.82;;
62673;SDS011;62269;47.594;17.638;2023-09-19T00:07:06;16.55;;;10.50;;
62673;SDS011;62269;47.594;17.638;2023-09-19T00:08:03;15.38;;;10.25;;
62673;SDS011;62269;47.594;17.638;2023-09-19T00:09:00;15.82;;;9.95;;
62673;SDS011;62269;47.594;17.638;2023-09-19T00:09:59;14.43;;;9.52;;
62673;SDS011;62269;47.594;17.638;2023-09-19T00:10:57;14.75;;;10.40;;
62673;SDS011;62269;47.594;17.638;2023-09-19T00:12:03;14.40;;;10.65;;
62673;SDS011;62269;47.594;17.638;2023-09-19T00:13:03;16.02;;;9.88;;
62673;SDS011;62269;47.594;17.638;2023-09-19T00:14:04;17.80;;;10.13;;
62673;SDS011;62269;47.594;17.638;2023-09-19T00:15:05;13.68;;;9.27;;
62673;SDS011;62269;47.594;17.638;2023-09-19T00:16:11;13.38;;;9.68;;
62673;SDS011;62269;47.594;17.638;2023-09-19T00:17:09;16.55;;;9.95;;
62673;SDS011;62269;47.594;17.638;2023-09-19T00:18:07;17.30;;;10.85;;
62673;SDS011;62269;47.594;17.638;2023-09-19T00:19:05;22.52;;;10.38;;
62673;SDS011;62269;47.594;17.638;2023-09-19T00:20:06;15.52;;;9.93;;
62673;SDS011;62269;47.594;17.638;2023-09-19T00:21:09;17.17;;;9.75;;
62673;SDS011;62269;47.594;17.638;2023-09-19T00:22:06;15.25;;;10.48;;
62673;SDS011;62269;47.594;17.638;2023-09-19T00:23:04;15.90;;;11.27;;
62673;SDS011;62269;47.594;17.638;2023-09-19T00:24:05;19.23;;;10.70;;
62673;SDS011;62269;47.594;17.638;2023-09-19T00:25:03;16.08;;;10.10;;
62673;SDS011;62269;47.594;17.638;2023-09-19T00:26:02;18.35;;;10.32;;
62673;SDS011;62269;47.594;17.638;2023-09-19T00:27:00;15.85;;;9.77;;
62673;SDS011;62269;47.594;17.638;2023-09-19T00:27:57;18.35;;;10.75;;
62673;SDS011;62269;47.594;17.638;2023-09-19T00:28:54;15.50;;;10.10;;
62673;SDS011;62269;47.594;17.638;2023-09-19T00:29:53;17.87;;;10.13;;
62673;SDS011;62269;47.594;17.638;2023-09-19T00:30:51;15.52;;;9.55;;
62673;SDS011;62269;47.594;17.638;2023-09-19T00:31:48;14.25;;;10.02;;
62673;SDS011;62269;47.594;17.638;2023-09-19T00:32:45;17.90;;;10.13;;
62673;SDS011;62269;47.594;17.638;2023-09-19T00:33:46;18.65;;;11.12;;
62673;SDS011;62269;47.594;17.638;2023-09-19T00:34:45;15.40;;;9.93;;
62673;SDS011;62269;47.594;17.638;2023-09-19T00:35:48;16.17;;;10.45;;
62673;SDS011;62269;47.594;17.638;2023-09-19T00:36:46;19.35;;;10.38;;
62673;SDS011;62269;47.594;17.638;2023-09-19T00:37:43;18.27;;;10.55;;
62673;SDS011;62269;47.594;17.638;2023-09-19T00:38:40;17.40;;;10.38;;
62673;SDS011;62269;47.594;17.638;2023-09-19T00:39:37;15.63;;;10.07;;
62673;SDS011;62269;47.594;17.638;2023-09-19T00:40:34;18.10;;;11.63;;
62673;SDS011;62269;47.594;17.638;2023-09-19T00:41:33;13.40;;;10.40;;
62673;SDS011;62269;47.594;17.638;2023-09-19T00:42:32;14.40;;;9.80;;
62673;SDS011;62269;47.594;17.638;2023-09-19T00:43:30;17.62;;;10.75;;
62673;SDS011;62269;47.594;17.638;2023-09-19T00:44:31;13.80;;;10.07;;
62673;SDS011;62269;47.594;17.638;2023-09-19T00:45:31;17.10;;;9.75;;
62673;SDS011;62269;47.594;17.638;2023-09-19T00:46:28;16.10;;;9.77;;
62673;SDS011;62269;47.594;17.638;2023-09-19T00:47:25;19.15;;;10.50;;
62673;SDS011;62269;47.594;17.638;2023-09-19T00:48:25;19.00;;;9.77;;
62673;SDS011;62269;47.594;17.638;2023-09-19T00:49:25;16.65;;;9.43;;
62673;SDS011;62269;47.594;17.638;2023-09-19T00:50:23;15.15;;;9.60;;
62673;SDS011;62269;47.594;17.638;2023-09-19T00:51:21;16.42;;;8.93;;
62673;SDS011;62269;47.594;17.638;2023-09-19T00:52:19;15.90;;;9.90;;
62673;SDS011;62269;47.594;17.638;2023-09-19T00:53:18;13.88;;;9.43;;
62673;SDS011;62269;47.594;17.638;2023-09-19T00:55:15;14.05;;;9.38;;
62673;SDS011;62269;47.594;17.638;2023-09-19T00:56:12;16.37;;;9.05;;
62673;SDS011;62269;47.594;17.638;2023-09-19T00:57:15;18.05;;;9.07;;
62673;SDS011;62269;47.594;17.638;2023-09-19T00:58:16;13.75;;;8.80;;
62673;SDS011;62269;47.594;17.638;2023-09-19T00:59:15;10.73;;;9.07;;
62673;SDS011;62269;47.594;17.638;2023-09-19T01:00:12;17.00;;;10.10;;
62673;SDS011;62269;47.594;17.638;2023-09-19T01:01:15;14.55;;;8.85;;
62673;SDS011;62269;47.594;17.638;2023-09-19T01:02:14;15.50;;;8.77;;
62673;SDS011;62269;47.594;17.638;2023-09-19T01:03:12;16.05;;;9.45;;
62673;SDS011;62269;47.594;17.638;2023-09-19T01:04:10;15.82;;;9.30;;
62673;SDS011;62269;47.594;17.638;2023-09-19T01:05:07;14.63;;;9.43;;
62673;SDS011;62269;47.594;17.638;2023-09-19T01:06:04;17.37;;;8.75;;
62673;SDS011;62269;47.594;17.638;2023-09-19T01:07:01;13.57;;;10.30;;
62673;SDS011;62269;47.594;17.638;2023-09-19T01:07:58;18.08;;;9.73;;
62673;SDS011;62269;47.594;17.638;2023-09-19T01:08:55;15.52;;;8.93;;
62673;SDS011;62269;47.594;17.638;2023-09-19T01:09:52;17.70;;;10.15;;
62673;SDS011;62269;47.594;17.638;2023-09-19T01:10:59;17.50;;;8.88;;
62673;SDS011;62269;47.594;17.638;2023-09-19T01:12:01;14.02;;;8.50;;
62673;SDS011;62269;47.594;17.638;2023-09-19T01:13:13;12.95;;;7.95;;
62673;SDS011;62269;47.594;17.638;2023-09-19T01:15:28;12.07;;;8.52;;
62673;SDS011;62269;47.594;17.638;2023-09-19T01:17:46;11.35;;;7.87;;
62673;SDS011;62269;47.594;17.638;2023-09-19T01:22:13;15.90;;;8.25;;
62673;SDS011;62269;47.594;17.638;2023-09-19T01:26:12;8.70;;;6.47;;
62673;SDS011;62269;47.594;17.638;2023-09-19T01:28:43;11.60;;;6.75;;
62673;SDS011;62269;47.594;17.638;2023-09-19T01:29:51;11.43;;;7.18;;
62673;SDS011;62269;47.594;17.638;2023-09-19T01:30:48;11.12;;;7.20;;
62673;SDS011;62269;47.594;17.638;2023-09-19T01:31:50;11.65;;;7.18;;
62673;SDS011;62269;47.594;17.638;2023-09-19T01:32:51;12.48;;;6.90;;
62673;SDS011;62269;47.594;17.638;2023-09-19T01:34:01;13.70;;;7.28;;
62673;SDS011;62269;47.594;17.638;2023-09-19T01:35:01;12.43;;;6.80;;
62673;SDS011;62269;47.594;17.638;2023-09-19T01:36:00;9.70;;;6.95;;
62673;SDS011;62269;47.594;17.638;2023-09-19T01:36:58;10.68;;;6.15;;
62673;SDS011;62269;47.594;17.638;2023-09-19T01:37:55;9.15;;;6.10;;
62673;SDS011;62269;47.594;17.638;2023-09-19T01:38:52;8.68;;;6.57;;
62673;SDS011;62269;47.594;17.638;2023-09-19T01:39:55;9.80;;;6.10;;
62673;SDS011;62269;47.594;17.638;2023-09-19T01:40:57;12.65;;;6.78;;
62673;SDS011;62269;47.594;17.638;2023-09-19T01:42:05;10.55;;;6.87;;
62673;SDS011;62269;47.594;17.638;2023-09-19T01:43:12;9.75;;;5.68;;
62673;SDS011;62269;47.594;17.638;2023-09-19T01:45:02;10.02;;;5.53;;
62673;SDS011;62269;47.594;17.638;2023-09-19T01:45:59;11.35;;;5.55;;
62673;SDS011;62269;47.594;17.638;2023-09-19T01:50:52;7.70;;;4.65;;
62673;SDS011;62269;47.594;17.638;2023-09-19T01:51:56;7.25;;;5.18;;
62673;SDS011;62269;47.594;17.638;2023-09-19T01:53:24;6.68;;;5.12;;
62673;SDS011;62269;47.594;17.638;2023-09-19T01:54:26;9.95;;;4.97;;
62673;SDS011;62269;47.594;17.638;2023-09-19T01:55:24;6.70;;;4.80;;
62673;SDS011;62269;47.594;17.638;2023-09-19T01:56:28;6.22;;;4.85;;
62673;SDS011;62269;47.594;17.638;2023-09-19T01:58:16;7.50;;;4.47;;
62673;SDS011;62269;47.594;17.638;2023-09-19T01:59:09;10.90;;;5.12;;
62673;SDS011;62269;47.594;17.638;2023-09-19T02:00:10;6.32;;;4.80;;
62673;SDS011;62269;47.594;17.638;2023-09-19T02:01:08;9.30;;;4.90;;
62673;SDS011;62269;47.594;17.638;2023-09-19T02:02:10;7.60;;;4.62;;
62673;SDS011;62269;47.594;17.638;2023-09-19T02:03:08;6.65;;;4.95;;
62673;SDS011;62269;47.594;17.638;2023-09-19T02:04:07;9.52;;;5.43;;
62673;SDS011;62269;47.594;17.638;2023-09-19T02:05:04;7.70;;;4.93;;
62673;SDS011;62269;47.594;17.638;2023-09-19T02:06:02;6.68;;;4.60;;
62673;SDS011;62269;47.594;17.638;2023-09-19T02:07:00;7.40;;;4.57;;
62673;SDS011;62269;47.594;17.638;2023-09-19T02:07:57;8.77;;;4.45;;
62673;SDS011;62269;47.594;17.638;2023-09-19T02:08:55;9.07;;;4.60;;
62673;SDS011;62269;47.594;17.638;2023-09-19T02:09:52;8.20;;;4.40;;
62673;SDS011;62269;47.594;17.638;2023-09-19T02:10:49;5.62;;;4.20;;
62673;SDS011;62269;47.594;17.638;2023-09-19T02:11:47;7.55;;;4.30;;
62673;SDS011;62269;47.594;17.638;2023-09-19T02:12:45;7.25;;;4.22;;
62673;SDS011;62269;47.594;17.638;2023-09-19T02:13:42;5.25;;;3.70;;
62673;SDS011;62269;47.594;17.638;2023-09-19T02:14:40;5.70;;;3.75;;
62673;SDS011;62269;47.594;17.638;2023-09-19T02:15:37;6.82;;;3.62;;
62673;SDS011;62269;47.594;17.638;2023-09-19T02:16:34;5.78;;;3.35;;
62673;SDS011;62269;47.594;17.638;2023-09-19T02:17:32;7.35;;;3.58;;
62673;SDS011;62269;47.594;17.638;2023-09-19T02:18:29;5.70;;;3.17;;
62673;SDS011;62269;47.594;17.638;2023-09-19T02:19:27;5.35;;;3.53;;
62673;SDS011;62269;47.594;17.638;2023-09-19T02:20:24;6.82;;;3.20;;
62673;SDS011;62269;47.594;17.638;2023-09-19T02:21:22;6.30;;;3.40;;
62673;SDS011;62269;47.594;17.638;2023-09-19T02:22:19;7.28;;;3.90;;
62673;SDS011;62269;47.594;17.638;2023-09-19T02:23:17;3.08;;;2.80;;
62673;SDS011;62269;47.594;17.638;2023-09-19T02:24:14;8.32;;;3.50;;
62673;SDS011;62269;47.594;17.638;2023-09-19T02:25:12;3.03;;;2.72;;
62673;SDS011;62269;47.594;17.638;2023-09-19T02:26:10;6.53;;;3.28;;
62673;SDS011;62269;47.594;17.638;2023-09-19T02:27:08;4.03;;;3.08;;
62673;SDS011;62269;47.594;17.638;2023-09-19T02:28:09;3.00;;;2.70;;
62673;SDS011;62269;47.594;17.638;2023-09-19T02:29:06;3.08;;;2.80;;
62673;SDS011;62269;47.594;17.638;2023-09-19T02:30:04;3.22;;;2.22;;
62673;SDS011;62269;47.594;17.638;2023-09-19T02:31:02;2.53;;;2.33;;
62673;SDS011;62269;47.594;17.638;2023-09-19T02:32:02;2.78;;;2.42;;
62673;SDS011;62269;47.594;17.638;2023-09-19T02:33:01;2.42;;;1.87;;
62673;SDS011;62269;47.594;17.638;2023-09-19T02:33:58;4.25;;;2.28;;
62673;SDS011;62269;47.594;17.638;2023-09-19T02:34:57;3.87;;;2.47;;
62673;SDS011;62269;47.594;17.638;2023-09-19T02:36:54;2.15;;;1.60;;
62673;SDS011;62269;47.594;17.638;2023-09-19T02:37:52;3.00;;;2.20;;
62673;SDS011;62269;47.594;17.638;2023-09-19T02:38:49;3.28;;;2.25;;
62673;SDS011;62269;47.594;17.638;2023-09-19T02:39:46;2.20;;;2.00;;
62673;SDS011;62269;47.594;17.638;2023-09-19T02:40:43;2.35;;;2.15;;
62673;SDS011;62269;47.594;17.638;2023-09-19T02:41:41;3.60;;;2.00;;
62673;SDS011;62269;47.594;17.638;2023-09-19T02:42:38;3.05;;;2.75;;
62673;SDS011;62269;47.594;17.638;2023-09-19T02:43:35;3.70;;;2.33;;
62673;SDS011;62269;47.594;17.638;2023-09-19T02:44:33;2.90;;;2.35;;
62673;SDS011;62269;47.594;17.638;2023-09-19T02:45:30;2.12;;;1.85;;
62673;SDS011;62269;47.594;17.638;2023-09-19T02:46:28;2.87;;;1.87;;
62673;SDS011;62269;47.594;17.638;2023-09-19T02:47:25;2.40;;;2.20;;
62673;SDS011;62269;47.594;17.638;2023-09-19T02:48:25;2.75;;;2.40;;
62673;SDS011;62269;47.594;17.638;2023-09-19T02:49:22;2.08;;;1.98;;
62673;SDS011;62269;47.594;17.638;2023-09-19T02:50:19;3.25;;;2.33;;
62673;SDS011;62269;47.594;17.638;2023-09-19T02:51:16;2.58;;;2.20;;
62673;SDS011;62269;47.594;17.638;2023-09-19T02:52:13;2.65;;;2.28;;
62673;SDS011;62269;47.594;17.638;2023-09-19T02:53:11;4.60;;;2.50;;
62673;SDS011;62269;47.594;17.638;2023-09-19T02:54:09;4.28;;;2.40;;
62673;SDS011;62269;47.594;17.638;2023-09-19T02:55:07;4.25;;;2.42;;
62673;SDS011;62269;47.594;17.638;2023-09-19T02:56:05;4.68;;;2.33;;
62673;SDS011;62269;47.594;17.638;2023-09-19T02:57:03;3.35;;;1.98;;
62673;SDS011;62269;47.594;17.638;2023-09-19T02:58:03;4.43;;;2.22;;
62673;SDS011;62269;47.594;17.638;2023-09-19T02:59:01;2.10;;;1.95;;
62673;SDS011;62269;47.594;17.638;2023-09-19T02:59:59;2.55;;;2.35;;
62673;SDS011;62269;47.594;17.638;2023-09-19T03:00:57;4.03;;;2.60;;
62673;SDS011;62269;47.594;17.638;2023-09-19T03:01:54;2.20;;;2.00;;
62673;SDS011;62269;47.594;17.638;2023-09-19T03:02:54;2.55;;;2.35;;
62673;SDS011;62269;47.594;17.638;2023-09-19T03:03:52;2.25;;;2.00;;
62673;SDS011;62269;47.594;17.638;2023-09-19T03:04:50;4.18;;;3.10;;
62673;SDS011;62269;47.594;17.638;2023-09-19T03:05:48;3.72;;;2.30;;
62673;SDS011;62269;47.594;17.638;2023-09-19T03:06:48;3.42;;;2.28;;
62673;SDS011;62269;47.594;17.638;2023-09-19T03:07:47;3.60;;;2.20;;
62673;SDS011;62269;47.594;17.638;2023-09-19T03:08:47;4.15;;;2.35;;
62673;SDS011;62269;47.594;17.638;2023-09-19T03:09:46;3.53;;;2.37;;
62673;SDS011;62269;47.594;17.638;2023-09-19T03:10:45;2.20;;;2.03;;
62673;SDS011;62269;47.594;17.638;2023-09-19T03:11:43;3.55;;;2.35;;
62673;SDS011;62269;47.594;17.638;2023-09-19T03:12:40;2.95;;;1.73;;
62673;SDS011;62269;47.594;17.638;2023-09-19T03:13:38;3.80;;;2.62;;
62673;SDS011;62269;47.594;17.638;2023-09-19T03:14:36;3.67;;;2.15;;
62673;SDS011;62269;47.594;17.638;2023-09-19T03:15:33;2.00;;;1.87;;
62673;SDS011;62269;47.594;17.638;2023-09-19T03:16:31;2.00;;;1.90;;
62673;SDS011;62269;47.594;17.638;2023-09-19T03:17:28;2.45;;;2.25;;
62673;SDS011;62269;47.594;17.638;2023-09-19T03:18:25;3.72;;;3.08;;
62673;SDS011;62269;47.594;17.638;2023-09-19T03:19:23;3.00;;;2.30;;
62673;SDS011;62269;47.594;17.638;2023-09-19T03:20:21;3.62;;;2.55;;
62673;SDS011;62269;47.594;17.638;2023-09-19T03:21:19;5.22;;;2.53;;
62673;SDS011;62269;47.594;17.638;2023-09-19T03:22:18;5.53;;;2.60;;
62673;SDS011;62269;47.594;17.638;2023-09-19T03:23:15;4.37;;;2.60;;
62673;SDS011;62269;47.594;17.638;2023-09-19T03:24:13;5.70;;;2.80;;
62673;SDS011;62269;47.594;17.638;2023-09-19T03:25:10;3.28;;;2.60;;
62673;SDS011;62269;47.594;17.638;2023-09-19T03:26:08;3.62;;;2.42;;
62673;SDS011;62269;47.594;17.638;2023-09-19T03:27:05;5.22;;;2.60;;
62673;SDS011;62269;47.594;17.638;2023-09-19T03:28:02;3.67;;;2.50;;
62673;SDS011;62269;47.594;17.638;2023-09-19T03:29:05;5.95;;;2.67;;
62673;SDS011;62269;47.594;17.638;2023-09-19T03:30:03;4.32;;;2.55;;
62673;SDS011;62269;47.594;17.638;2023-09-19T03:31:10;5.07;;;3.12;;
62673;SDS011;62269;47.594;17.638;2023-09-19T03:32:08;4.68;;;3.10;;
62673;SDS011;62269;47.594;17.638;2023-09-19T03:33:08;7.82;;;3.10;;
62673;SDS011;62269;47.594;17.638;2023-09-19T03:34:06;5.22;;;3.05;;
62673;SDS011;62269;47.594;17.638;2023-09-19T03:35:04;5.20;;;2.80;;
62673;SDS011;62269;47.594;17.638;2023-09-19T03:36:02;3.83;;;3.00;;
62673;SDS011;62269;47.594;17.638;2023-09-19T03:38:00;6.15;;;3.60;;
62673;SDS011;62269;47.594;17.638;2023-09-19T03:38:57;6.12;;;2.85;;
62673;SDS011;62269;47.594;17.638;2023-09-19T03:39:54;5.12;;;3.28;;
62673;SDS011;62269;47.594;17.638;2023-09-19T03:40:51;10.00;;;3.28;;
62673;SDS011;62269;47.594;17.638;2023-09-19T03:41:48;7.97;;;3.78;;
62673;SDS011;62269;47.594;17.638;2023-09-19T03:42:46;4.50;;;3.20;;
62673;SDS011;62269;47.594;17.638;2023-09-19T03:43:45;7.62;;;3.20;;
62673;SDS011;62269;47.594;17.638;2023-09-19T03:44:42;5.18;;;3.12;;
62673;SDS011;62269;47.594;17.638;2023-09-19T03:45:39;2.90;;;2.50;;
62673;SDS011;62269;47.594;17.638;2023-09-19T03:46:36;5.20;;;2.87;;
62673;SDS011;62269;47.594;17.638;2023-09-19T03:47:34;5.30;;;3.10;;
62673;SDS011;62269;47.594;17.638;2023-09-19T03:48:31;4.87;;;2.90;;
62673;SDS011;62269;47.594;17.638;2023-09-19T03:49:28;4.78;;;2.80;;
62673;SDS011;62269;47.594;17.638;2023-09-19T03:50:25;5.18;;;3.62;;
62673;SDS011;62269;47.594;17.638;2023-09-19T03:51:22;5.40;;;3.42;;
62673;SDS011;62269;47.594;17.638;2023-09-19T03:52:19;5.18;;;2.90;;
62673;SDS011;62269;47.594;17.638;2023-09-19T03:53:16;5.28;;;2.92;;
62673;SDS011;62269;47.594;17.638;2023-09-19T03:54:13;4.78;;;2.53;;
62673;SDS011;62269;47.594;17.638;2023-09-19T03:55:10;7.30;;;3.30;;
62673;SDS011;62269;47.594;17.638;2023-09-19T03:56:07;6.37;;;2.72;;
62673;SDS011;62269;47.594;17.638;2023-09-19T03:57:04;7.70;;;3.05;;
62673;SDS011;62269;47.594;17.638;2023-09-19T03:58:02;4.37;;;3.08;;
62673;SDS011;62269;47.594;17.638;2023-09-19T03:59:00;6.00;;;3.42;;
62673;SDS011;62269;47.594;17.638;2023-09-19T03:59:57;4.25;;;2.72;;
62673;SDS011;62269;47.594;17.638;2023-09-19T04:00:57;3.58;;;3.20;;
62673;SDS011;62269;47.594;17.638;2023-09-19T04:01:54;5.57;;;3.30;;
62673;SDS011;62269;47.594;17.638;2023-09-19T04:02:53;6.65;;;3.28;;
62673;SDS011;62269;47.594;17.638;2023-09-19T04:03:53;5.00;;;3.33;;
62673;SDS011;62269;47.594;17.638;2023-09-19T04:04:51;3.22;;;2.62;;
62673;SDS011;62269;47.594;17.638;2023-09-19T04:05:48;4.45;;;2.78;;
62673;SDS011;62269;47.594;17.638;2023-09-19T04:06:45;5.35;;;3.10;;
62673;SDS011;62269;47.594;17.638;2023-09-19T04:07:42;4.72;;;3.45;;
62673;SDS011;62269;47.594;17.638;2023-09-19T04:08:40;3.50;;;2.90;;
62673;SDS011;62269;47.594;17.638;2023-09-19T04:09:37;6.45;;;3.20;;
62673;SDS011;62269;47.594;17.638;2023-09-19T04:10:34;4.35;;;2.67;;
62673;SDS011;62269;47.594;17.638;2023-09-19T04:11:32;12.82;;;3.20;;
62673;SDS011;62269;47.594;17.638;2023-09-19T04:12:29;4.07;;;2.90;;
62673;SDS011;62269;47.594;17.638;2023-09-19T04:13:27;6.43;;;3.30;;
62673;SDS011;62269;47.594;17.638;2023-09-19T04:14:24;4.22;;;2.53;;
62673;SDS011;62269;47.594;17.638;2023-09-19T04:15:22;5.45;;;3.00;;
62673;SDS011;62269;47.594;17.638;2023-09-19T04:16:20;4.00;;;2.87;;
62673;SDS011;62269;47.594;17.638;2023-09-19T04:17:17;5.10;;;2.83;;
62673;SDS011;62269;47.594;17.638;2023-09-19T04:18:15;5.45;;;3.20;;
62673;SDS011;62269;47.594;17.638;2023-09-19T04:19:12;4.80;;;2.97;;
62673;SDS011;62269;47.594;17.638;2023-09-19T04:20:09;5.80;;;3.00;;
62673;SDS011;62269;47.594;17.638;2023-09-19T04:21:09;5.28;;;3.20;;
62673;SDS011;62269;47.594;17.638;2023-09-19T04:22:06;5.18;;;2.85;;
62673;SDS011;62269;47.594;17.638;2023-09-19T04:23:03;4.70;;;3.00;;
62673;SDS011;62269;47.594;17.638;2023-09-19T04:24:02;4.53;;;3.42;;
62673;SDS011;62269;47.594;17.638;2023-09-19T04:24:59;6.07;;;3.22;;
62673;SDS011;62269;47.594;17.638;2023-09-19T04:25:56;4.00;;;2.87;;
62673;SDS011;62269;47.594;17.638;2023-09-19T04:26:54;3.65;;;3.17;;
62673;SDS011;62269;47.594;17.638;2023-09-19T04:27:51;4.68;;;2.92;;
62673;SDS011;62269;47.594;17.638;2023-09-19T04:28:48;3.17;;;2.83;;
62673;SDS011;62269;47.594;17.638;2023-09-19T04:29:45;4.45;;;3.10;;
62673;SDS011;62269;47.594;17.638;2023-09-19T04:30:42;4.80;;;2.92;;
62673;SDS011;62269;47.594;17.638;2023-09-19T04:31:40;9.90;;;3.20;;
62673;SDS011;62269;47.594;17.638;2023-09-19T04:32:40;5.22;;;3.37;;
62673;SDS011;62269;47.594;17.638;2023-09-19T04:33:37;4.28;;;2.95;;
62673;SDS011;62269;47.594;17.638;2023-09-19T04:34:35;4.47;;;2.85;;
62673;SDS011;62269;47.594;17.638;2023-09-19T04:35:32;5.78;;;3.17;;
62673;SDS011;62269;47.594;17.638;2023-09-19T04:36:30;4.72;;;2.85;;
62673;SDS011;62269;47.594;17.638;2023-09-19T04:37:31;4.15;;;2.90;;
62673;SDS011;62269;47.594;17.638;2023-09-19T04:38:29;4.28;;;3.10;;
62673;SDS011;62269;47.594;17.638;2023-09-19T04:39:26;6.22;;;3.00;;
62673;SDS011;62269;47.594;17.638;2023-09-19T04:40:24;4.30;;;3.00;;
62673;SDS011;62269;47.594;17.638;2023-09-19T04:41:23;4.55;;;3.00;;
62673;SDS011;62269;47.594;17.638;2023-09-19T04:42:21;7.85;;;3.10;;
62673;SDS011;62269;47.594;17.638;2023-09-19T04:43:21;4.97;;;3.30;;
62673;SDS011;62269;47.594;17.638;2023-09-19T04:44:18;3.70;;;3.00;;
62673;SDS011;62269;47.594;17.638;2023-09-19T04:45:15;5.12;;;3.30;;
62673;SDS011;62269;47.594;17.638;2023-09-19T04:46:12;4.43;;;3.10;;
62673;SDS011;62269;47.594;17.638;2023-09-19T04:47:10;6.20;;;3.10;;
62673;SDS011;62269;47.594;17.638;2023-09-19T04:48:08;3.40;;;2.90;;
62673;SDS011;62269;47.594;17.638;2023-09-19T04:49:07;5.15;;;2.72;;
62673;SDS011;62269;47.594;17.638;2023-09-19T04:50:07;4.15;;;3.12;;
62673;SDS011;62269;47.594;17.638;2023-09-19T04:51:08;3.45;;;2.92;;
62673;SDS011;62269;47.594;17.638;2023-09-19T04:52:07;5.68;;;3.53;;
62673;SDS011;62269;47.594;17.638;2023-09-19T04:53:04;4.57;;;3.17;;
62673;SDS011;62269;47.594;17.638;2023-09-19T04:54:01;4.72;;;2.95;;
62673;SDS011;62269;47.594;17.638;2023-09-19T04:54:59;8.40;;;3.62;;
62673;SDS011;62269;47.594;17.638;2023-09-19T04:55:56;3.62;;;2.75;;
62673;SDS011;62269;47.594;17.638;2023-09-19T04:56:54;4.78;;;3.00;;
62673;SDS011;62269;47.594;17.638;2023-09-19T04:57:51;5.62;;;3.05;;
62673;SDS011;62269;47.594;17.638;2023-09-19T04:58:51;3.72;;;2.90;;
62673;SDS011;62269;47.594;17.638;2023-09-19T04:59:48;5.10;;;3.47;;
62673;SDS011;62269;47.594;17.638;2023-09-19T05:00:46;4.93;;;3.30;;
62673;SDS011;62269;47.594;17.638;2023-09-19T05:01:43;4.75;;;3.05;;
62673;SDS011;62269;47.594;17.638;2023-09-19T05:02:41;5.85;;;3.35;;
62673;SDS011;62269;47.594;17.638;2023-09-19T05:03:39;3.90;;;2.90;;
62673;SDS011;62269;47.594;17.638;2023-09-19T05:04:36;5.22;;;3.75;;
62673;SDS011;62269;47.594;17.638;2023-09-19T05:05:33;5.75;;;3.67;;
62673;SDS011;62269;47.594;17.638;2023-09-19T05:06:31;5.00;;;3.20;;
62673;SDS011;62269;47.594;17.638;2023-09-19T05:07:31;4.95;;;3.20;;
62673;SDS011;62269;47.594;17.638;2023-09-19T05:08:30;5.57;;;3.08;;
62673;SDS011;62269;47.594;17.638;2023-09-19T05:09:27;4.55;;;2.90;;
62673;SDS011;62269;47.594;17.638;2023-09-19T05:10:24;3.47;;;2.78;;
62673;SDS011;62269;47.594;17.638;2023-09-19T05:11:22;9.68;;;3.10;;
62673;SDS011;62269;47.594;17.638;2023-09-19T05:12:19;4.28;;;3.10;;
62673;SDS011;62269;47.594;17.638;2023-09-19T05:13:16;4.10;;;2.80;;
62673;SDS011;62269;47.594;17.638;2023-09-19T05:14:13;4.40;;;3.10;;
62673;SDS011;62269;47.594;17.638;2023-09-19T05:15:10;4.12;;;2.92;;
62673;SDS011;62269;47.594;17.638;2023-09-19T05:16:07;4.15;;;2.92;;
62673;SDS011;62269;47.594;17.638;2023-09-19T05:17:06;6.90;;;3.42;;
62673;SDS011;62269;47.594;17.638;2023-09-19T05:18:04;4.55;;;3.40;;
62673;SDS011;62269;47.594;17.638;2023-09-19T05:19:02;4.25;;;3.05;;
62673;SDS011;62269;47.594;17.638;2023-09-19T05:20:00;5.47;;;3.30;;
62673;SDS011;62269;47.594;17.638;2023-09-19T05:21:11;4.40;;;3.12;;
62673;SDS011;62269;47.594;17.638;2023-09-19T05:22:09;4.72;;;2.97;;
62673;SDS011;62269;47.594;17.638;2023-09-19T05:23:06;4.97;;;3.35;;
62673;SDS011;62269;47.594;17.638;2023-09-19T05:24:08;5.00;;;3.00;;
62673;SDS011;62269;47.594;17.638;2023-09-19T05:25:07;4.97;;;3.20;;
62673;SDS011;62269;47.594;17.638;2023-09-19T05:26:04;5.53;;;3.03;;
62673;SDS011;62269;47.594;17.638;2023-09-19T05:27:02;4.65;;;3.10;;
62673;SDS011;62269;47.594;17.638;2023-09-19T05:28:04;3.92;;;3.10;;
62673;SDS011;62269;47.594;17.638;2023-09-19T05:29:02;4.37;;;3.28;;
62673;SDS011;62269;47.594;17.638;2023-09-19T05:30:00;5.68;;;2.65;;
62673;SDS011;62269;47.594;17.638;2023-09-19T05:30:59;4.47;;;3.05;;
62673;SDS011;62269;47.594;17.638;2023-09-19T05:31:58;7.25;;;3.30;;
62673;SDS011;62269;47.594;17.638;2023-09-19T05:32:55;4.55;;;2.65;;
62673;SDS011;62269;47.594;17.638;2023-09-19T05:33:53;5.78;;;2.85;;
62673;SDS011;62269;47.594;17.638;2023-09-19T05:34:51;4.20;;;3.30;;
62673;SDS011;62269;47.594;17.638;2023-09-19T05:35:50;6.07;;;2.87;;
62673;SDS011;62269;47.594;17.638;2023-09-19T05:36:47;7.55;;;3.40;;
62673;SDS011;62269;47.594;17.638;2023-09-19T05:37:45;4.20;;;3.70;;
62673;SDS011;62269;47.594;17.638;2023-09-19T05:38:42;6.47;;;2.97;;
62673;SDS011;62269;47.594;17.638;2023-09-19T05:39:41;4.37;;;3.20;;
62673;SDS011;62269;47.594;17.638;2023-09-19T05:40:38;4.10;;;2.87;;
62673;SDS011;62269;47.594;17.638;2023-09-19T05:41:39;5.70;;;3.92;;
62673;SDS011;62269;47.594;17.638;2023-09-19T05:42:36;5.95;;;2.75;;
62673;SDS011;62269;47.594;17.638;2023-09-19T05:43:34;5.22;;;3.10;;
62673;SDS011;62269;47.594;17.638;2023-09-19T05:44:34;3.53;;;2.87;;
62673;SDS011;62269;47.594;17.638;2023-09-19T05:45:32;7.50;;;3.33;;
62673;SDS011;62269;47.594;17.638;2023-09-19T05:46:29;4.43;;;3.25;;
62673;SDS011;62269;47.594;17.638;2023-09-19T05:47:26;5.05;;;2.95;;
62673;SDS011;62269;47.594;17.638;2023-09-19T05:48:24;7.60;;;3.25;;
62673;SDS011;62269;47.594;17.638;2023-09-19T05:49:22;4.22;;;3.08;;
62673;SDS011;62269;47.594;17.638;2023-09-19T05:50:21;3.47;;;2.97;;
62673;SDS011;62269;47.594;17.638;2023-09-19T05:51:18;3.35;;;2.80;;
62673;SDS011;62269;47.594;17.638;2023-09-19T05:52:19;3.78;;;2.65;;
62673;SDS011;62269;47.594;17.638;2023-09-19T05:53:18;3.92;;;3.03;;
62673;SDS011;62269;47.594;17.638;2023-09-19T05:54:15;3.53;;;2.80;;
62673;SDS011;62269;47.594;17.638;2023-09-19T05:55:13;5.50;;;3.22;;
62673;SDS011;62269;47.594;17.638;2023-09-19T05:56:11;6.03;;;4.03;;
62673;SDS011;62269;47.594;17.638;2023-09-19T05:57:10;5.57;;;3.22;;
62673;SDS011;62269;47.594;17.638;2023-09-19T05:58:08;3.20;;;2.90;;
62673;SDS011;62269;47.594;17.638;2023-09-19T05:59:07;4.95;;;3.53;;
62673;SDS011;62269;47.594;17.638;2023-09-19T06:00:05;7.75;;;3.03;;
62673;SDS011;62269;47.594;17.638;2023-09-19T06:01:06;7.05;;;3.20;;
62673;SDS011;62269;47.594;17.638;2023-09-19T06:02:04;5.37;;;3.33;;
62673;SDS011;62269;47.594;17.638;2023-09-19T06:03:03;3.70;;;2.92;;
62673;SDS011;62269;47.594;17.638;2023-09-19T06:04:01;6.65;;;3.60;;
62673;SDS011;62269;47.594;17.638;2023-09-19T06:04:58;3.50;;;3.20;;